sensor_id;sensor_type;location;lat;lon;timestamp;temperature;humidity
38500;DHT22;24269;51.894;4.622;2022-07-18T00:00:34;17.60;99.90
38500;DHT22;24269;51.894;4.622;2022-07-18T00:03:00;17.60;99.90
38500;DHT22;24269;51.894;4.622;2022-07-18T00:05:26;17.50;99.90
38500;DHT22;24269;51.894;4.622;2022-07-18T00:07:52;17.50;99.90
38500;DHT22;24269;51.894;4.622;2022-07-18T00:10:18;17.50;99.90
38500;DHT22;24269;51.894;4.622;2022-07-18T00:12:43;17.50;99.90
38500;DHT22;24269;51.894;4.622;2022-07-18T00:15:12;17.50;99.90
38500;DHT22;24269;51.894;4.622;2022-07-18T00:17:39;17.50;99.90
38500;DHT22;24269;51.894;4.622;2022-07-18T00:20:07;17.40;99.90
38500;DHT22;24269;51.894;4.622;2022-07-18T00:22:36;17.40;99.90
38500;DHT22;24269;51.894;4.622;2022-07-18T00:25:02;17.40;99.90
38500;DHT22;24269;51.894;4.622;2022-07-18T00:27:28;17.40;99.90
38500;DHT22;24269;51.894;4.622;2022-07-18T00:29:54;17.30;99.90
38500;DHT22;24269;51.894;4.622;2022-07-18T00:32:19;17.30;99.90
38500;DHT22;24269;51.894;4.622;2022-07-18T00:34:54;17.30;99.90
38500;DHT22;24269;51.894;4.622;2022-07-18T00:37:20;17.30;99.90
38500;DHT22;24269;51.894;4.622;2022-07-18T00:39:45;17.20;99.90
38500;DHT22;24269;51.894;4.622;2022-07-18T00:42:11;17.20;99.90
38500;DHT22;24269;51.894;4.622;2022-07-18T00:44:37;17.10;99.90
38500;DHT22;24269;51.894;4.622;2022-07-18T00:47:03;17.10;99.90
38500;DHT22;24269;51.894;4.622;2022-07-18T00:49:29;17.10;99.90
38500;DHT22;24269;51.894;4.622;2022-07-18T00:51:55;17.10;99.90
38500;DHT22;24269;51.894;4.622;2022-07-18T00:54:21;17.00;99.90
38500;DHT22;24269;51.894;4.622;2022-07-18T00:56:49;17.00;99.90
38500;DHT22;24269;51.894;4.622;2022-07-18T00:59:15;17.00;99.90
38500;DHT22;24269;51.894;4.622;2022-07-18T01:01:41;17.00;99.90
38500;DHT22;24269;51.894;4.622;2022-07-18T01:04:20;17.00;99.90
38500;DHT22;24269;51.894;4.622;2022-07-18T01:06:47;17.00;99.90
38500;DHT22;24269;51.894;4.622;2022-07-18T01:09:16;17.00;99.90
38500;DHT22;24269;51.894;4.622;2022-07-18T01:11:43;17.00;99.90
38500;DHT22;24269;51.894;4.622;2022-07-18T01:14:09;17.00;99.90
38500;DHT22;24269;51.894;4.622;2022-07-18T01:16:37;17.00;99.90
38500;DHT22;24269;51.894;4.622;2022-07-18T01:19:03;16.90;99.90
38500;DHT22;24269;51.894;4.622;2022-07-18T01:21:29;16.90;99.90
38500;DHT22;24269;51.894;4.622;2022-07-18T01:23:55;16.80;99.90
38500;DHT22;24269;51.894;4.622;2022-07-18T01:26:21;16.80;99.90
38500;DHT22;24269;51.894;4.622;2022-07-18T01:28:50;16.80;99.90
38500;DHT22;24269;51.894;4.622;2022-07-18T01:31:16;16.80;99.90
38500;DHT22;24269;51.894;4.622;2022-07-18T01:33:41;16.70;99.90
38500;DHT22;24269;51.894;4.622;2022-07-18T01:36:07;16.70;99.90
38500;DHT22;24269;51.894;4.622;2022-07-18T01:38:34;16.70;99.90
38500;DHT22;24269;51.894;4.622;2022-07-18T01:41:00;16.70;99.90
38500;DHT22;24269;51.894;4.622;2022-07-18T01:43:27;16.70;99.90
38500;DHT22;24269;51.894;4.622;2022-07-18T01:45:54;16.60;99.90
38500;DHT22;24269;51.894;4.622;2022-07-18T01:48:20;16.60;99.90
38500;DHT22;24269;51.894;4.622;2022-07-18T01:50:48;16.60;99.90
38500;DHT22;24269;51.894;4.622;2022-07-18T01:53:13;16.60;99.90
38500;DHT22;24269;51.894;4.622;2022-07-18T01:55:42;16.50;99.90
38500;DHT22;24269;51.894;4.622;2022-07-18T01:58:08;16.50;99.90
38500;DHT22;24269;51.894;4.622;2022-07-18T02:00:34;16.50;99.90
38500;DHT22;24269;51.894;4.622;2022-07-18T02:03:00;16.50;99.90
38500;DHT22;24269;51.894;4.622;2022-07-18T02:05:25;16.50;99.90
38500;DHT22;24269;51.894;4.622;2022-07-18T02:07:51;16.50;99.90
38500;DHT22;24269;51.894;4.622;2022-07-18T02:10:19;16.50;99.90
38500;DHT22;24269;51.894;4.622;2022-07-18T02:12:45;16.50;99.90
38500;DHT22;24269;51.894;4.622;2022-07-18T02:15:15;16.50;99.90
38500;DHT22;24269;51.894;4.622;2022-07-18T02:17:41;16.40;99.90
38500;DHT22;24269;51.894;4.622;2022-07-18T02:20:09;16.40;99.90
38500;DHT22;24269;51.894;4.622;2022-07-18T02:22:35;16.40;99.90
38500;DHT22;24269;51.894;4.622;2022-07-18T02:25:01;16.40;99.90
38500;DHT22;24269;51.894;4.622;2022-07-18T02:27:27;16.30;99.90
38500;DHT22;24269;51.894;4.622;2022-07-18T02:29:53;16.30;99.90
38500;DHT22;24269;51.894;4.622;2022-07-18T02:32:18;16.30;99.90
38500;DHT22;24269;51.894;4.622;2022-07-18T02:34:44;16.30;99.90
38500;DHT22;24269;51.894;4.622;2022-07-18T02:37:10;16.20;99.90
38500;DHT22;24269;51.894;4.622;2022-07-18T02:39:36;16.20;99.90
38500;DHT22;24269;51.894;4.622;2022-07-18T02:42:03;16.20;99.90
38500;DHT22;24269;51.894;4.622;2022-07-18T02:44:28;16.20;99.90
38500;DHT22;24269;51.894;4.622;2022-07-18T02:46:54;16.20;99.90
38500;DHT22;24269;51.894;4.622;2022-07-18T02:49:20;16.10;99.90
38500;DHT22;24269;51.894;4.622;2022-07-18T02:52:00;16.10;99.90
38500;DHT22;24269;51.894;4.622;2022-07-18T02:54:27;16.10;99.90
38500;DHT22;24269;51.894;4.622;2022-07-18T02:56:53;16.10;99.90
38500;DHT22;24269;51.894;4.622;2022-07-18T02:59:22;16.10;99.90
38500;DHT22;24269;51.894;4.622;2022-07-18T03:01:48;16.00;99.90
38500;DHT22;24269;51.894;4.622;2022-07-18T03:04:14;16.10;99.90
38500;DHT22;24269;51.894;4.622;2022-07-18T03:06:40;16.00;99.90
38500;DHT22;24269;51.894;4.622;2022-07-18T03:09:07;16.00;99.90
38500;DHT22;24269;51.894;4.622;2022-07-18T03:11:32;16.00;99.90
38500;DHT22;24269;51.894;4.622;2022-07-18T03:13:58;16.00;99.90
38500;DHT22;24269;51.894;4.622;2022-07-18T03:16:24;15.90;99.90
38500;DHT22;24269;51.894;4.622;2022-07-18T03:18:49;15.90;99.90
38500;DHT22;24269;51.894;4.622;2022-07-18T03:21:15;15.90;99.90
38500;DHT22;24269;51.894;4.622;2022-07-18T03:23:43;15.90;99.90
38500;DHT22;24269;51.894;4.622;2022-07-18T03:26:09;15.80;99.90
38500;DHT22;24269;51.894;4.622;2022-07-18T03:28:34;15.90;99.90
38500;DHT22;24269;51.894;4.622;2022-07-18T03:31:00;15.90;99.90
38500;DHT22;24269;51.894;4.622;2022-07-18T03:33:26;15.80;99.90
38500;DHT22;24269;51.894;4.622;2022-07-18T03:35:52;15.80;99.90
38500;DHT22;24269;51.894;4.622;2022-07-18T03:38:18;15.80;99.90
38500;DHT22;24269;51.894;4.622;2022-07-18T03:40:47;15.80;99.90
38500;DHT22;24269;51.894;4.622;2022-07-18T03:43:13;15.80;99.90
38500;DHT22;24269;51.894;4.622;2022-07-18T03:45:39;15.80;99.90
38500;DHT22;24269;51.894;4.622;2022-07-18T03:48:05;15.80;99.90
38500;DHT22;24269;51.894;4.622;2022-07-18T03:50:30;15.70;99.90
38500;DHT22;24269;51.894;4.622;2022-07-18T03:52:56;15.70;99.90
38500;DHT22;24269;51.894;4.622;2022-07-18T03:55:22;15.80;99.90
38500;DHT22;24269;51.894;4.622;2022-07-18T03:57:48;15.70;99.90
38500;DHT22;24269;51.894;4.622;2022-07-18T04:00:14;15.70;99.90
38500;DHT22;24269;51.894;4.622;2022-07-18T04:02:42;15.70;99.90
38500;DHT22;24269;51.894;4.622;2022-07-18T04:05:08;15.70;99.90
38500;DHT22;24269;51.894;4.622;2022-07-18T04:07:34;15.70;99.90
38500;DHT22;24269;51.894;4.622;2022-07-18T04:10:00;15.70;99.90
38500;DHT22;24269;51.894;4.622;2022-07-18T04:12:25;15.70;99.90
38500;DHT22;24269;51.894;4.622;2022-07-18T04:14:51;15.70;99.90
38500;DHT22;24269;51.894;4.622;2022-07-18T04:17:16;15.70;99.90
38500;DHT22;24269;51.894;4.622;2022-07-18T04:19:42;15.70;99.90
38500;DHT22;24269;51.894;4.622;2022-07-18T04:22:07;15.70;99.90
38500;DHT22;24269;51.894;4.622;2022-07-18T04:24:33;15.70;99.90
38500;DHT22;24269;51.894;4.622;2022-07-18T04:26:59;15.70;99.90
38500;DHT22;24269;51.894;4.622;2022-07-18T04:29:25;15.70;99.90
38500;DHT22;24269;51.894;4.622;2022-07-18T04:31:51;15.80;99.90
38500;DHT22;24269;51.894;4.622;2022-07-18T04:34:16;15.80;99.90
38500;DHT22;24269;51.894;4.622;2022-07-18T04:36:42;15.80;99.90
38500;DHT22;24269;51.894;4.622;2022-07-18T04:39:08;15.80;99.90
38500;DHT22;24269;51.894;4.622;2022-07-18T04:41:34;15.80;99.90
38500;DHT22;24269;51.894;4.622;2022-07-18T04:43:59;15.90;99.90
38500;DHT22;24269;51.894;4.622;2022-07-18T04:46:25;15.90;99.90
38500;DHT22;24269;51.894;4.622;2022-07-18T04:48:51;16.00;99.90
38500;DHT22;24269;51.894;4.622;2022-07-18T04:51:16;16.00;99.90
38500;DHT22;24269;51.894;4.622;2022-07-18T04:53:42;16.10;99.90
38500;DHT22;24269;51.894;4.622;2022-07-18T04:56:08;16.10;99.90
38500;DHT22;24269;51.894;4.622;2022-07-18T04:58:33;16.20;99.90
38500;DHT22;24269;51.894;4.622;2022-07-18T05:00:59;16.20;99.90
38500;DHT22;24269;51.894;4.622;2022-07-18T05:03:24;16.20;99.90
38500;DHT22;24269;51.894;4.622;2022-07-18T05:05:50;16.30;99.90
38500;DHT22;24269;51.894;4.622;2022-07-18T05:08:15;16.30;99.90
38500;DHT22;24269;51.894;4.622;2022-07-18T05:10:41;16.30;99.90
38500;DHT22;24269;51.894;4.622;2022-07-18T05:13:07;16.40;99.90
38500;DHT22;24269;51.894;4.622;2022-07-18T05:15:32;16.40;99.90
38500;DHT22;24269;51.894;4.622;2022-07-18T05:17:58;16.50;99.90
38500;DHT22;24269;51.894;4.622;2022-07-18T05:20:25;16.60;99.90
38500;DHT22;24269;51.894;4.622;2022-07-18T05:22:52;16.80;99.90
38500;DHT22;24269;51.894;4.622;2022-07-18T05:25:19;16.80;99.90
38500;DHT22;24269;51.894;4.622;2022-07-18T05:27:45;17.00;99.90
38500;DHT22;24269;51.894;4.622;2022-07-18T05:30:12;17.00;99.90
38500;DHT22;24269;51.894;4.622;2022-07-18T05:32:39;17.20;99.90
38500;DHT22;24269;51.894;4.622;2022-07-18T05:35:06;17.30;99.90
38500;DHT22;24269;51.894;4.622;2022-07-18T05:37:32;17.30;99.90
38500;DHT22;24269;51.894;4.622;2022-07-18T05:40:01;17.30;99.90
38500;DHT22;24269;51.894;4.622;2022-07-18T05:42:26;17.40;99.90
38500;DHT22;24269;51.894;4.622;2022-07-18T05:44:52;17.40;99.90
38500;DHT22;24269;51.894;4.622;2022-07-18T05:47:17;17.50;99.90
38500;DHT22;24269;51.894;4.622;2022-07-18T05:49:43;17.60;99.90
38500;DHT22;24269;51.894;4.622;2022-07-18T05:52:08;17.70;99.90
38500;DHT22;24269;51.894;4.622;2022-07-18T05:54:34;17.70;99.90
38500;DHT22;24269;51.894;4.622;2022-07-18T05:57:00;17.90;99.90
38500;DHT22;24269;51.894;4.622;2022-07-18T05:59:25;18.00;99.90
38500;DHT22;24269;51.894;4.622;2022-07-18T06:01:51;18.10;99.90
38500;DHT22;24269;51.894;4.622;2022-07-18T06:04:17;18.20;99.90
38500;DHT22;24269;51.894;4.622;2022-07-18T06:06:42;18.30;99.90
38500;DHT22;24269;51.894;4.622;2022-07-18T06:09:08;18.40;99.90
38500;DHT22;24269;51.894;4.622;2022-07-18T06:11:34;18.60;99.90
38500;DHT22;24269;51.894;4.622;2022-07-18T06:14:00;18.60;99.90
38500;DHT22;24269;51.894;4.622;2022-07-18T06:16:28;18.80;99.90
38500;DHT22;24269;51.894;4.622;2022-07-18T06:18:55;19.00;99.90
38500;DHT22;24269;51.894;4.622;2022-07-18T06:21:21;19.20;99.90
38500;DHT22;24269;51.894;4.622;2022-07-18T06:23:46;19.50;99.90
38500;DHT22;24269;51.894;4.622;2022-07-18T06:26:12;19.60;99.90
38500;DHT22;24269;51.894;4.622;2022-07-18T06:28:38;19.80;99.90
38500;DHT22;24269;51.894;4.622;2022-07-18T06:31:03;19.90;99.90
38500;DHT22;24269;51.894;4.622;2022-07-18T06:33:29;20.00;99.90
38500;DHT22;24269;51.894;4.622;2022-07-18T06:35:54;20.20;99.90
38500;DHT22;24269;51.894;4.622;2022-07-18T06:38:20;20.20;99.90
38500;DHT22;24269;51.894;4.622;2022-07-18T06:40:46;20.20;99.90
38500;DHT22;24269;51.894;4.622;2022-07-18T06:43:11;20.30;99.90
38500;DHT22;24269;51.894;4.622;2022-07-18T06:45:39;20.40;99.90
38500;DHT22;24269;51.894;4.622;2022-07-18T06:48:04;20.60;99.90
38500;DHT22;24269;51.894;4.622;2022-07-18T06:50:30;20.80;99.90
38500;DHT22;24269;51.894;4.622;2022-07-18T06:52:56;21.00;99.90
38500;DHT22;24269;51.894;4.622;2022-07-18T06:55:21;21.10;99.90
38500;DHT22;24269;51.894;4.622;2022-07-18T06:57:47;21.30;99.90
38500;DHT22;24269;51.894;4.622;2022-07-18T07:00:14;21.50;99.90
38500;DHT22;24269;51.894;4.622;2022-07-18T07:02:41;21.50;99.90
38500;DHT22;24269;51.894;4.622;2022-07-18T07:05:08;21.60;99.90
38500;DHT22;24269;51.894;4.622;2022-07-18T07:07:34;21.50;99.90
38500;DHT22;24269;51.894;4.622;2022-07-18T07:09:59;21.50;99.90
38500;DHT22;24269;51.894;4.622;2022-07-18T07:12:25;21.60;99.90
38500;DHT22;24269;51.894;4.622;2022-07-18T07:14:51;21.80;99.90
38500;DHT22;24269;51.894;4.622;2022-07-18T07:17:16;22.00;99.90
38500;DHT22;24269;51.894;4.622;2022-07-18T07:19:42;22.10;99.90
38500;DHT22;24269;51.894;4.622;2022-07-18T07:22:07;22.30;99.90
38500;DHT22;24269;51.894;4.622;2022-07-18T07:24:33;22.60;99.90
38500;DHT22;24269;51.894;4.622;2022-07-18T07:26:58;22.90;99.90
38500;DHT22;24269;51.894;4.622;2022-07-18T07:29:25;23.20;99.90
38500;DHT22;24269;51.894;4.622;2022-07-18T07:31:51;23.50;99.90
38500;DHT22;24269;51.894;4.622;2022-07-18T07:34:16;23.70;99.90
38500;DHT22;24269;51.894;4.622;2022-07-18T07:36:42;23.90;99.90
38500;DHT22;24269;51.894;4.622;2022-07-18T07:39:07;23.90;99.90
38500;DHT22;24269;51.894;4.622;2022-07-18T07:41:33;24.00;99.90
38500;DHT22;24269;51.894;4.622;2022-07-18T07:43:59;24.20;99.90
38500;DHT22;24269;51.894;4.622;2022-07-18T07:46:26;24.40;99.90
38500;DHT22;24269;51.894;4.622;2022-07-18T07:48:52;24.60;99.90
38500;DHT22;24269;51.894;4.622;2022-07-18T07:51:18;24.80;99.90
38500;DHT22;24269;51.894;4.622;2022-07-18T07:53:45;25.00;99.90
38500;DHT22;24269;51.894;4.622;2022-07-18T07:56:10;25.20;99.90
38500;DHT22;24269;51.894;4.622;2022-07-18T07:58:36;25.40;99.90
38500;DHT22;24269;51.894;4.622;2022-07-18T08:01:02;25.60;99.90
38500;DHT22;24269;51.894;4.622;2022-07-18T08:03:28;25.70;99.90
38500;DHT22;24269;51.894;4.622;2022-07-18T08:05:53;25.70;99.90
38500;DHT22;24269;51.894;4.622;2022-07-18T08:08:19;25.70;99.70
38500;DHT22;24269;51.894;4.622;2022-07-18T08:10:45;25.90;99.20
38500;DHT22;24269;51.894;4.622;2022-07-18T08:13:13;25.80;99.80
38500;DHT22;24269;51.894;4.622;2022-07-18T08:15:39;26.00;99.90
38500;DHT22;24269;51.894;4.622;2022-07-18T08:18:05;26.20;99.90
38500;DHT22;24269;51.894;4.622;2022-07-18T08:20:31;26.30;99.90
38500;DHT22;24269;51.894;4.622;2022-07-18T08:22:59;26.50;99.90
38500;DHT22;24269;51.894;4.622;2022-07-18T08:25:26;26.50;99.90
38500;DHT22;24269;51.894;4.622;2022-07-18T08:27:52;26.70;99.00
38500;DHT22;24269;51.894;4.622;2022-07-18T08:30:18;26.80;98.60
38500;DHT22;24269;51.894;4.622;2022-07-18T08:32:44;26.80;99.10
38500;DHT22;24269;51.894;4.622;2022-07-18T08:35:10;26.90;98.80
38500;DHT22;24269;51.894;4.622;2022-07-18T08:37:35;27.10;98.80
38500;DHT22;24269;51.894;4.622;2022-07-18T08:40:01;27.20;99.20
38500;DHT22;24269;51.894;4.622;2022-07-18T08:42:27;27.30;98.80
38500;DHT22;24269;51.894;4.622;2022-07-18T08:44:55;27.40;97.60
38500;DHT22;24269;51.894;4.622;2022-07-18T08:47:21;27.50;98.30
38500;DHT22;24269;51.894;4.622;2022-07-18T08:49:48;27.60;98.10
38500;DHT22;24269;51.894;4.622;2022-07-18T08:52:14;27.60;97.00
38500;DHT22;24269;51.894;4.622;2022-07-18T08:54:40;27.80;97.40
38500;DHT22;24269;51.894;4.622;2022-07-18T08:57:06;28.00;96.30
38500;DHT22;24269;51.894;4.622;2022-07-18T08:59:32;28.10;95.70
38500;DHT22;24269;51.894;4.622;2022-07-18T09:01:57;28.00;96.20
38500;DHT22;24269;51.894;4.622;2022-07-18T09:04:39;28.00;95.90
38500;DHT22;24269;51.894;4.622;2022-07-18T09:07:06;27.90;96.20
38500;DHT22;24269;51.894;4.622;2022-07-18T09:09:34;28.00;96.30
38500;DHT22;24269;51.894;4.622;2022-07-18T09:12:03;28.10;96.70
38500;DHT22;24269;51.894;4.622;2022-07-18T09:14:35;28.30;96.90
38500;DHT22;24269;51.894;4.622;2022-07-18T09:20:07;28.60;95.00
38500;DHT22;24269;51.894;4.622;2022-07-18T09:22:36;28.50;93.70
38500;DHT22;24269;51.894;4.622;2022-07-18T09:27:46;29.00;92.00
38500;DHT22;24269;51.894;4.622;2022-07-18T09:30:27;29.00;92.80
38500;DHT22;24269;51.894;4.622;2022-07-18T09:35:30;29.20;92.60
38500;DHT22;24269;51.894;4.622;2022-07-18T09:38:09;29.50;91.40
38500;DHT22;24269;51.894;4.622;2022-07-18T09:40:37;29.60;91.80
38500;DHT22;24269;51.894;4.622;2022-07-18T09:43:05;29.60;91.30
38500;DHT22;24269;51.894;4.622;2022-07-18T09:45:42;29.80;92.10
38500;DHT22;24269;51.894;4.622;2022-07-18T09:48:10;29.70;90.30
38500;DHT22;24269;51.894;4.622;2022-07-18T09:50:42;29.90;90.10
38500;DHT22;24269;51.894;4.622;2022-07-18T09:53:15;30.00;89.10
38500;DHT22;24269;51.894;4.622;2022-07-18T09:55:50;30.10;90.00
38500;DHT22;24269;51.894;4.622;2022-07-18T09:58:19;30.30;87.20
38500;DHT22;24269;51.894;4.622;2022-07-18T10:03:34;30.10;85.70
38500;DHT22;24269;51.894;4.622;2022-07-18T10:06:01;30.20;88.30
38500;DHT22;24269;51.894;4.622;2022-07-18T10:08:29;30.10;90.30
38500;DHT22;24269;51.894;4.622;2022-07-18T10:10:56;30.30;90.70
38500;DHT22;24269;51.894;4.622;2022-07-18T10:13:26;30.50;90.60
38500;DHT22;24269;51.894;4.622;2022-07-18T10:15:52;30.50;89.90
38500;DHT22;24269;51.894;4.622;2022-07-18T10:18:20;30.60;90.40
38500;DHT22;24269;51.894;4.622;2022-07-18T10:20:49;30.80;88.60
38500;DHT22;24269;51.894;4.622;2022-07-18T10:23:40;30.90;83.80
38500;DHT22;24269;51.894;4.622;2022-07-18T10:26:18;30.90;85.80
38500;DHT22;24269;51.894;4.622;2022-07-18T10:33:53;31.00;84.40
38500;DHT22;24269;51.894;4.622;2022-07-18T10:36:20;31.10;78.60
38500;DHT22;24269;51.894;4.622;2022-07-18T10:39:08;31.30;80.30
38500;DHT22;24269;51.894;4.622;2022-07-18T10:50:00;31.80;77.60
38500;DHT22;24269;51.894;4.622;2022-07-18T10:57:38;32.20;70.30
38500;DHT22;24269;51.894;4.622;2022-07-18T11:13:28;32.50;69.30
38500;DHT22;24269;51.894;4.622;2022-07-18T11:16:09;32.70;72.60
38500;DHT22;24269;51.894;4.622;2022-07-18T11:21:21;33.10;65.10
38500;DHT22;24269;51.894;4.622;2022-07-18T11:23:59;33.20;64.50
38500;DHT22;24269;51.894;4.622;2022-07-18T11:26:25;33.20;60.90
38500;DHT22;24269;51.894;4.622;2022-07-18T11:29:08;33.30;64.50
38500;DHT22;24269;51.894;4.622;2022-07-18T11:31:53;33.40;63.40
38500;DHT22;24269;51.894;4.622;2022-07-18T11:34:19;33.40;62.90
38500;DHT22;24269;51.894;4.622;2022-07-18T11:36:46;33.40;60.80
38500;DHT22;24269;51.894;4.622;2022-07-18T11:39:13;33.50;62.30
38500;DHT22;24269;51.894;4.622;2022-07-18T11:41:40;33.70;61.50
38500;DHT22;24269;51.894;4.622;2022-07-18T11:44:19;33.90;59.80
38500;DHT22;24269;51.894;4.622;2022-07-18T11:47:03;33.80;60.00
38500;DHT22;24269;51.894;4.622;2022-07-18T11:49:29;33.80;59.20
38500;DHT22;24269;51.894;4.622;2022-07-18T11:51:57;33.90;60.90
38500;DHT22;24269;51.894;4.622;2022-07-18T11:54:23;33.90;58.70
38500;DHT22;24269;51.894;4.622;2022-07-18T11:56:52;34.00;59.50
38500;DHT22;24269;51.894;4.622;2022-07-18T11:59:18;34.00;60.10
38500;DHT22;24269;51.894;4.622;2022-07-18T12:01:44;34.30;57.30
38500;DHT22;24269;51.894;4.622;2022-07-18T12:04:21;34.40;58.50
38500;DHT22;24269;51.894;4.622;2022-07-18T12:07:14;34.50;56.40
38500;DHT22;24269;51.894;4.622;2022-07-18T12:09:40;34.70;57.50
38500;DHT22;24269;51.894;4.622;2022-07-18T12:12:10;34.70;58.10
38500;DHT22;24269;51.894;4.622;2022-07-18T12:14:37;35.00;56.30
38500;DHT22;24269;51.894;4.622;2022-07-18T12:17:06;35.10;55.70
38500;DHT22;24269;51.894;4.622;2022-07-18T12:19:38;35.10;56.50
38500;DHT22;24269;51.894;4.622;2022-07-18T12:22:12;34.90;53.70
38500;DHT22;24269;51.894;4.622;2022-07-18T12:24:51;34.80;55.10
38500;DHT22;24269;51.894;4.622;2022-07-18T12:32:49;35.60;53.80
38500;DHT22;24269;51.894;4.622;2022-07-18T12:38:12;35.70;52.70
38500;DHT22;24269;51.894;4.622;2022-07-18T12:43:50;35.70;48.30
38500;DHT22;24269;51.894;4.622;2022-07-18T12:46:16;35.70;48.60
38500;DHT22;24269;51.894;4.622;2022-07-18T12:48:42;35.90;48.90
38500;DHT22;24269;51.894;4.622;2022-07-18T12:51:10;35.70;48.40
38500;DHT22;24269;51.894;4.622;2022-07-18T12:53:39;35.80;48.80
38500;DHT22;24269;51.894;4.622;2022-07-18T12:56:05;35.80;49.30
38500;DHT22;24269;51.894;4.622;2022-07-18T12:58:30;35.90;48.50
38500;DHT22;24269;51.894;4.622;2022-07-18T13:00:56;35.90;48.50
38500;DHT22;24269;51.894;4.622;2022-07-18T13:03:23;35.90;48.20
38500;DHT22;24269;51.894;4.622;2022-07-18T13:05:48;36.00;47.80
38500;DHT22;24269;51.894;4.622;2022-07-18T13:08:14;36.20;46.90
38500;DHT22;24269;51.894;4.622;2022-07-18T13:10:41;36.30;48.30
38500;DHT22;24269;51.894;4.622;2022-07-18T13:13:08;36.50;47.30
38500;DHT22;24269;51.894;4.622;2022-07-18T13:15:34;36.80;48.90
38500;DHT22;24269;51.894;4.622;2022-07-18T13:18:00;36.90;50.20
38500;DHT22;24269;51.894;4.622;2022-07-18T13:20:26;37.10;48.70
38500;DHT22;24269;51.894;4.622;2022-07-18T13:22:52;37.40;48.60
38500;DHT22;24269;51.894;4.622;2022-07-18T13:25:19;37.30;48.50
38500;DHT22;24269;51.894;4.622;2022-07-18T13:27:45;37.10;47.30
38500;DHT22;24269;51.894;4.622;2022-07-18T13:30:11;37.10;49.20
38500;DHT22;24269;51.894;4.622;2022-07-18T13:32:37;37.30;48.30
38500;DHT22;24269;51.894;4.622;2022-07-18T13:35:04;37.50;47.00
38500;DHT22;24269;51.894;4.622;2022-07-18T13:37:30;37.50;48.40
38500;DHT22;24269;51.894;4.622;2022-07-18T13:39:56;37.70;46.90
38500;DHT22;24269;51.894;4.622;2022-07-18T13:42:22;37.70;47.50
38500;DHT22;24269;51.894;4.622;2022-07-18T13:44:48;37.80;47.80
38500;DHT22;24269;51.894;4.622;2022-07-18T13:47:15;37.70;47.70
38500;DHT22;24269;51.894;4.622;2022-07-18T13:49:41;37.80;47.30
38500;DHT22;24269;51.894;4.622;2022-07-18T13:52:07;37.80;47.10
38500;DHT22;24269;51.894;4.622;2022-07-18T13:54:32;37.80;46.80
38500;DHT22;24269;51.894;4.622;2022-07-18T13:56:58;37.70;45.20
38500;DHT22;24269;51.894;4.622;2022-07-18T13:59:24;37.50;45.10
38500;DHT22;24269;51.894;4.622;2022-07-18T14:01:49;37.50;45.00
38500;DHT22;24269;51.894;4.622;2022-07-18T14:04:18;37.50;45.10
38500;DHT22;24269;51.894;4.622;2022-07-18T14:06:45;37.50;45.50
38500;DHT22;24269;51.894;4.622;2022-07-18T14:09:10;37.50;46.30
38500;DHT22;24269;51.894;4.622;2022-07-18T14:11:36;37.30;46.20
38500;DHT22;24269;51.894;4.622;2022-07-18T14:14:03;37.20;48.10
38500;DHT22;24269;51.894;4.622;2022-07-18T14:16:30;37.30;47.70
38500;DHT22;24269;51.894;4.622;2022-07-18T14:18:56;37.40;48.10
38500;DHT22;24269;51.894;4.622;2022-07-18T14:21:22;37.50;45.20
38500;DHT22;24269;51.894;4.622;2022-07-18T14:23:47;37.60;44.40
38500;DHT22;24269;51.894;4.622;2022-07-18T14:26:13;37.60;45.90
38500;DHT22;24269;51.894;4.622;2022-07-18T14:28:39;37.80;45.70
38500;DHT22;24269;51.894;4.622;2022-07-18T14:31:05;38.30;46.50
38500;DHT22;24269;51.894;4.622;2022-07-18T14:33:31;38.70;47.00
38500;DHT22;24269;51.894;4.622;2022-07-18T14:35:57;38.90;45.50
38500;DHT22;24269;51.894;4.622;2022-07-18T14:38:22;39.20;47.90
38500;DHT22;24269;51.894;4.622;2022-07-18T14:40:48;39.50;45.50
38500;DHT22;24269;51.894;4.622;2022-07-18T14:43:14;39.80;46.60
38500;DHT22;24269;51.894;4.622;2022-07-18T14:45:39;39.90;43.80
38500;DHT22;24269;51.894;4.622;2022-07-18T14:48:05;40.30;44.60
38500;DHT22;24269;51.894;4.622;2022-07-18T14:50:31;40.40;43.10
38500;DHT22;24269;51.894;4.622;2022-07-18T14:52:56;40.40;43.50
38500;DHT22;24269;51.894;4.622;2022-07-18T14:55:22;40.20;44.20
38500;DHT22;24269;51.894;4.622;2022-07-18T14:57:48;39.50;43.10
38500;DHT22;24269;51.894;4.622;2022-07-18T15:00:14;39.90;42.70
38500;DHT22;24269;51.894;4.622;2022-07-18T15:02:40;40.30;42.50
38500;DHT22;24269;51.894;4.622;2022-07-18T15:05:06;40.40;42.50
38500;DHT22;24269;51.894;4.622;2022-07-18T15:07:32;40.80;42.80
38500;DHT22;24269;51.894;4.622;2022-07-18T15:09:58;41.00;41.80
38500;DHT22;24269;51.894;4.622;2022-07-18T15:12:24;40.80;41.20
38500;DHT22;24269;51.894;4.622;2022-07-18T15:14:50;40.80;43.10
38500;DHT22;24269;51.894;4.622;2022-07-18T15:17:16;40.70;41.20
38500;DHT22;24269;51.894;4.622;2022-07-18T15:19:42;40.90;41.20
38500;DHT22;24269;51.894;4.622;2022-07-18T15:22:07;40.90;41.10
38500;DHT22;24269;51.894;4.622;2022-07-18T15:24:34;41.20;41.20
38500;DHT22;24269;51.894;4.622;2022-07-18T15:27:00;41.60;40.80
38500;DHT22;24269;51.894;4.622;2022-07-18T15:29:26;41.20;42.40
38500;DHT22;24269;51.894;4.622;2022-07-18T15:31:52;41.80;41.90
38500;DHT22;24269;51.894;4.622;2022-07-18T15:34:18;42.30;41.60
38500;DHT22;24269;51.894;4.622;2022-07-18T15:36:43;42.80;40.20
38500;DHT22;24269;51.894;4.622;2022-07-18T15:39:09;43.00;40.60
38500;DHT22;24269;51.894;4.622;2022-07-18T15:41:35;42.90;38.80
38500;DHT22;24269;51.894;4.622;2022-07-18T15:44:00;42.50;39.70
38500;DHT22;24269;51.894;4.622;2022-07-18T15:46:26;42.10;38.50
38500;DHT22;24269;51.894;4.622;2022-07-18T15:48:52;41.90;39.50
38500;DHT22;24269;51.894;4.622;2022-07-18T15:51:18;41.90;39.30
38500;DHT22;24269;51.894;4.622;2022-07-18T15:53:44;42.20;38.30
38500;DHT22;24269;51.894;4.622;2022-07-18T15:56:09;42.30;38.20
38500;DHT22;24269;51.894;4.622;2022-07-18T15:58:35;42.20;38.90
38500;DHT22;24269;51.894;4.622;2022-07-18T16:01:01;42.60;40.00
38500;DHT22;24269;51.894;4.622;2022-07-18T16:03:27;43.00;39.40
38500;DHT22;24269;51.894;4.622;2022-07-18T16:05:53;43.00;40.60
38500;DHT22;24269;51.894;4.622;2022-07-18T16:08:24;43.20;39.00
38500;DHT22;24269;51.894;4.622;2022-07-18T16:10:49;43.30;38.80
38500;DHT22;24269;51.894;4.622;2022-07-18T16:13:15;43.20;37.40
38500;DHT22;24269;51.894;4.622;2022-07-18T16:15:41;42.80;39.10
38500;DHT22;24269;51.894;4.622;2022-07-18T16:18:09;42.00;39.20
38500;DHT22;24269;51.894;4.622;2022-07-18T16:20:34;40.60;39.00
38500;DHT22;24269;51.894;4.622;2022-07-18T16:23:00;39.20;39.70
38500;DHT22;24269;51.894;4.622;2022-07-18T16:25:26;38.00;40.10